Time;durP1;ratioP1;P1;durP2;ratioP2;P2;SDS_P1;SDS_P2;PMS_P1;PMS_P2;Temp;Humidity;BMP_temperature;BMP_pressure;BME280_temperature;BME280_humidity;BME280_pressure;Samples;Min_cycle;Max_cycle;Signal;HPM_P1;HPM_P2
2023/01/24 00:25:10;;;;;;;21.50;11.90;;;;;;;0.49;77.52;101421.67;105309;1280;612997;-41
2023/01/24 00:27:38;;;;;;;23.00;10.50;;;;;;;0.87;76.08;101425.14;106491;1264;163405;-41
2023/01/24 00:30:09;;;;;;;16.40;9.60;;;;;;;0.83;75.96;101425.02;106699;1264;61539;-41
2023/01/24 00:32:38;;;;;;;20.10;10.70;;;;;;;0.83;75.65;101411.09;106677;1264;73591;-41
2023/01/24 00:35:07;;;;;;;23.50;10.30;;;;;;;0.91;74.96;101419.42;106815;1264;69090;-41
2023/01/24 00:37:36;;;;;;;23.60;11.00;;;;;;;0.85;74.06;101414.59;106752;1264;72741;-41
2023/01/24 00:40:06;;;;;;;20.10;11.40;;;;;;;0.76;73.63;101413.92;106705;1264;60814;-41
2023/01/24 00:42:34;;;;;;;24.30;10.80;;;;;;;0.62;73.06;101410.66;106777;1269;61196;-41
2023/01/24 00:45:03;;;;;;;22.40;10.90;;;;;;;0.50;73.68;101408.17;106000;1264;1003089;-41
2023/01/24 00:47:33;;;;;;;20.00;10.30;;;;;;;0.43;73.92;101408.13;107264;1257;68101;-41
2023/01/24 00:50:01;;;;;;;20.50;10.20;;;;;;;0.44;73.69;101410.58;107272;1257;73855;-41
2023/01/24 00:52:30;;;;;;;21.10;9.40;;;;;;;0.43;73.55;101408.48;107254;1257;60646;-41
2023/01/24 00:54:59;;;;;;;19.50;10.90;;;;;;;0.39;73.55;101410.30;107284;1257;61301;-41
2023/01/24 00:57:27;;;;;;;18.90;10.70;;;;;;;0.37;73.83;101413.25;107243;1257;74308;-41
2023/01/24 00:59:57;;;;;;;17.70;8.60;;;;;;;0.36;73.77;101410.46;107339;1257;69988;-40
2023/01/24 01:02:27;;;;;;;18.70;10.30;;;;;;;0.29;73.32;101407.35;107246;1257;73753;-40
2023/01/24 01:04:57;;;;;;;18.10;9.30;;;;;;;0.21;73.35;101409.77;107310;1257;61106;-40
2023/01/24 01:07:26;;;;;;;23.10;10.10;;;;;;;0.20;73.43;101414.55;107289;1257;61151;-41
2023/01/24 01:09:55;;;;;;;20.40;10.20;;;;;;;0.19;73.51;101411.40;107302;1257;74310;-40
2023/01/24 01:12:23;;;;;;;19.30;11.10;;;;;;;0.17;73.27;101415.40;107269;1257;70020;-40
2023/01/24 01:14:52;;;;;;;23.50;11.00;;;;;;;0.12;73.26;101416.75;107304;1257;73344;-40
2023/01/24 01:17:21;;;;;;;21.00;10.60;;;;;;;0.00;73.51;101399.66;107188;1257;60896;-41
2023/01/24 01:19:53;;;;;;;20.40;10.30;;;;;;;0.12;73.63;101411.80;107217;1257;61503;-41
2023/01/24 01:22:21;;;;;;;17.40;10.00;;;;;;;0.16;73.33;101408.89;107205;1257;74246;-41
2023/01/24 01:24:51;;;;;;;20.80;10.80;;;;;;;0.16;73.05;101406.70;107178;1260;69992;-41
2023/01/24 01:27:19;;;;;;;18.50;10.20;;;;;;;0.14;72.99;101402.62;107168;1257;73905;-41
2023/01/24 01:29:48;;;;;;;19.20;11.00;;;;;;;0.13;73.00;101402.12;107203;1257;60769;-41
2023/01/24 01:32:16;;;;;;;18.50;10.60;;;;;;;0.15;73.17;101403.66;107212;1256;60506;-41
2023/01/24 01:34:45;;;;;;;25.40;11.70;;;;;;;0.18;73.06;101406.05;106484;1257;1003480;-41
2023/01/24 01:37:14;;;;;;;16.80;8.40;;;;;;;0.21;73.20;101406.64;107241;1257;69955;-41
2023/01/24 01:39:42;;;;;;;21.60;10.20;;;;;;;0.26;72.76;101405.34;107196;1257;73844;-41
2023/01/24 01:42:11;;;;;;;18.50;10.30;;;;;;;0.30;72.87;101402.57;107259;1256;60483;-41
2023/01/24 01:44:47;;;;;;;21.90;11.20;;;;;;;0.32;72.91;101404.36;107259;1256;61540;-41
2023/01/24 01:47:20;;;;;;;22.70;10.90;;;;;;;0.34;72.62;101406.42;107193;1260;74267;-41
2023/01/24 01:50:02;;;;;;;26.60;11.20;;;;;;;0.34;72.25;101403.34;107141;1257;69637;-41
2023/01/24 01:52:37;;;;;;;22.90;10.80;;;;;;;0.28;71.75;101400.92;107135;1257;73858;-41
2023/01/24 01:55:11;;;;;;;21.60;10.40;;;;;;;0.23;71.99;101404.64;107229;1257;60473;-41
2023/01/24 01:57:40;;;;;;;18.70;9.90;;;;;;;0.18;72.36;101402.05;107134;1256;61564;-41
2023/01/24 02:00:11;;;;;;;23.20;10.30;;;;;;;0.22;72.30;101402.47;107019;1257;74248;-41
2023/01/24 02:02:43;;;;;;;20.10;10.40;;;;;;;0.26;72.50;101402.88;107271;1257;69932;-41
2023/01/24 02:05:15;;;;;;;18.40;11.00;;;;;;;0.31;72.70;101401.89;107264;1257;73783;-41
2023/01/24 02:07:50;;;;;;;20.40;11.60;;;;;;;0.32;72.35;101399.88;107221;1257;60651;-41
2023/01/24 02:10:20;;;;;;;21.60;11.80;;;;;;;0.33;72.33;101401.39;107262;1257;59592;-41
2023/01/24 02:12:49;;;;;;;18.30;11.10;;;;;;;0.33;72.32;101402.58;107180;1262;74260;-41
2023/01/24 02:18:08;;;;;;;22.90;11.20;;;;;;;0.29;72.19;101392.77;107226;1257;72900;-40
2023/01/24 02:20:41;;;;;;;17.30;10.50;;;;;;;0.34;72.22;101390.69;103512;1257;1003672;-41
2023/01/24 02:23:41;;;;;;;22.70;11.70;;;;;;;0.41;72.49;101393.23;107237;1257;61517;-40
2023/01/24 02:26:27;;;;;;;;;;;;;;;0.42;71.87;101389.27;107204;1257;73931;-40
2023/01/24 02:29:05;;;;;;;20.50;11.50;;;;;;;0.29;72.10;101394.49;107088;1257;69984;-40
2023/01/24 02:32:01;;;;;;;22.90;10.50;;;;;;;0.23;71.91;101395.09;107198;1257;72821;-40
2023/01/24 02:34:32;;;;;;;23.40;12.00;;;;;;;0.25;72.14;101391.52;107158;1257;59768;-40
2023/01/24 02:37:04;;;;;;;21.40;11.50;;;;;;;0.24;72.25;101395.25;107194;1256;61409;-40
2023/01/24 02:39:40;;;;;;;18.50;10.30;;;;;;;0.28;72.19;101396.40;107187;1257;74249;-40
2023/01/24 02:42:11;;;;;;;21.20;11.00;;;;;;;0.37;71.67;101391.36;107198;1257;69954;-40
2023/01/24 02:44:48;;;;;;;23.20;12.10;;;;;;;0.32;71.05;101395.41;107257;1260;74101;-40
2023/01/24 02:47:18;;;;;;;18.90;11.90;;;;;;;0.25;71.52;101395.75;107197;1257;60692;-40
2023/01/24 02:49:46;;;;;;;20.90;11.80;;;;;;;0.23;71.65;101393.22;107299;1257;59635;-40
2023/01/24 02:55:02;;;;;;;22.80;11.80;;;;;;;0.21;71.54;101391.59;107250;1257;69899;-40
2023/01/24 03:00:18;;;;;;;16.80;10.60;;;;;;;0.21;70.75;101396.65;107245;1257;62102;-40
2023/01/24 03:02:47;;;;;;;25.50;12.20;;;;;;;0.22;71.12;101391.70;107320;1257;59628;-40
2023/01/24 03:05:16;;;;;;;21.40;12.40;;;;;;;0.24;71.16;101393.73;107254;1258;74290;-40
2023/01/24 03:07:45;;;;;;;24.10;12.80;;;;;;;0.23;71.12;101393.11;107261;1257;70002;-40
2023/01/24 03:10:17;;;;;;;21.90;11.20;;;;;;;0.21;71.32;101392.33;107627;1254;73504;-40
2023/01/24 03:35:09;;;;;;;22.30;11.90;;;;;;;-0.12;71.67;101394.31;107569;1254;69976;-39
2023/01/24 03:40:25;;;;;;;25.30;11.90;;;;;;;0.03;71.35;101395.54;107569;1254;60647;-40
2023/01/24 08:22:25;;;;;;;27.80;16.10;;;;;;;0.23;74.25;101450.73;105148;1283;614136;-38
2023/01/24 08:24:56;;;;;;;28.30;15.30;;;;;;;0.62;72.20;101451.11;106441;1266;196453;-36
2023/01/24 08:27:25;;;;;;;27.60;13.60;;;;;;;0.49;72.07;101453.19;106675;1266;61005;-37
2023/01/24 08:29:54;;;;;;;20.80;11.90;;;;;;;0.43;71.43;101451.23;106710;1265;73451;-36
2023/01/24 08:32:24;;;;;;;;;;;;;;;0.40;70.65;101449.95;106768;1266;68627;-36
2023/01/24 08:34:52;;;;;;;22.40;13.30;;;;;;;0.25;71.22;101452.42;106736;1266;72337;-36
2023/01/24 08:37:21;;;;;;;30.60;14.90;;;;;;;0.12;71.46;101440.13;106687;1265;60809;-36
2023/01/24 08:39:49;;;;;;;25.30;13.20;;;;;;;0.16;71.54;101448.40;106727;1266;61024;-36
2023/01/24 08:42:17;;;;;;;27.00;14.80;;;;;;;0.14;71.34;101448.54;106717;1266;73681;-37
2023/01/24 08:44:46;;;;;;;25.40;13.80;;;;;;;0.13;71.16;101445.69;106718;1265;69938;-37
2023/01/24 08:47:15;;;;;;;29.30;12.90;;;;;;;0.08;71.48;101441.61;106725;1265;72911;-37
2023/01/24 08:49:43;;;;;;;24.80;13.60;;;;;;;0.13;71.41;101436.00;106742;1266;62390;-37
2023/01/24 08:52:12;;;;;;;24.30;13.70;;;;;;;0.23;71.44;101435.84;106799;1266;61556;-37
2023/01/24 08:54:40;;;;;;;23.40;13.20;;;;;;;0.27;71.34;101432.17;106754;1266;73207;-37
2023/01/24 08:57:11;;;;;;;24.00;13.40;;;;;;;0.30;71.26;101431.27;106728;1268;69726;-38
2023/01/24 08:59:39;;;;;;;27.90;13.90;;;;;;;0.30;70.91;101431.70;106740;1266;72922;-38
2023/01/24 09:02:12;;;;;;;24.00;13.80;;;;;;;0.25;70.34;101425.59;106781;1266;60818;-38
2023/01/24 09:04:42;;;;;;;23.60;12.70;;;;;;;0.18;70.33;101423.29;106715;1266;61525;-38
2023/01/24 09:07:11;;;;;;;22.90;13.70;;;;;;;0.13;70.31;101423.82;106666;1265;74252;-36
2023/01/24 09:09:40;;;;;;;25.50;13.00;;;;;;;0.12;70.64;101424.45;106676;1266;69958;-37
2023/01/24 09:12:08;;;;;;;25.60;12.80;;;;;;;0.15;70.60;101423.44;106710;1266;74640;-37
2023/01/24 09:14:37;;;;;;;20.10;12.50;;;;;;;0.24;70.25;101422.09;106737;1266;59660;-37
2023/01/24 09:17:05;;;;;;;21.50;12.40;;;;;;;0.28;70.21;101422.42;106774;1266;61427;-37
2023/01/24 09:19:34;;;;;;;25.00;13.10;;;;;;;0.29;70.07;101420.41;106787;1266;74024;-37
2023/01/24 09:22:02;;;;;;;25.50;13.70;;;;;;;0.30;69.86;101419.80;106801;1266;69947;-37
2023/01/24 09:24:31;;;;;;;21.30;10.50;;;;;;;0.32;69.92;101421.16;106790;1264;73877;-37
2023/01/24 09:27:01;;;;;;;22.20;14.00;;;;;;;0.31;69.81;101422.70;106804;1265;60784;-37
2023/01/24 09:29:29;;;;;;;23.60;13.90;;;;;;;0.29;70.04;101421.48;106776;1266;61544;-37
2023/01/24 09:31:58;;;;;;;29.20;14.60;;;;;;;0.29;70.16;101419.30;106791;1265;73937;-37
2023/01/24 09:34:27;;;;;;;24.60;13.20;;;;;;;0.30;69.81;101421.18;106793;1265;69981;-37
2023/01/24 09:36:56;;;;;;;15.60;9.70;;;;;;;0.28;69.57;101411.98;106792;1265;73848;-37
2023/01/24 09:39:25;;;;;;;25.30;12.50;;;;;;;0.31;69.36;101422.65;106731;1266;60583;-37
2023/01/24 09:42:00;;;;;;;20.70;12.50;;;;;;;0.24;69.24;101422.89;106756;1265;61538;-38
2023/01/24 09:44:51;;;;;;;25.20;12.90;;;;;;;0.21;69.09;101419.85;106738;1266;74253;-37
2023/01/24 09:47:26;;;;;;;24.40;12.90;;;;;;;0.21;69.21;101418.47;106745;1266;70020;-37
2023/01/24 09:49:59;;;;;;;26.00;13.20;;;;;;;0.25;69.76;101412.95;106775;1266;72700;-37
2023/01/24 09:52:39;;;;;;;27.20;13.50;;;;;;;0.30;69.56;101408.69;106719;1266;60764;-38
2023/01/24 09:55:25;;;;;;;24.80;13.00;;;;;;;0.31;69.33;101410.38;106758;1265;61282;-37
2023/01/24 09:57:59;;;;;;;22.90;12.50;;;;;;;0.31;69.15;101408.08;106762;1266;74159;-38
2023/01/24 10:00:30;;;;;;;22.50;12.60;;;;;;;0.37;68.75;101407.64;106745;1266;69952;-38
2023/01/24 10:02:59;;;;;;;25.70;13.40;;;;;;;0.36;68.99;101409.66;106784;1265;71436;-38
2023/01/24 10:05:33;;;;;;;23.70;13.90;;;;;;;0.34;69.09;101404.45;106753;1264;59638;-38
2023/01/24 10:08:01;;;;;;;22.90;13.40;;;;;;;0.33;69.09;101405.71;106668;1266;61171;-38
2023/01/24 10:10:39;;;;;;;25.40;13.80;;;;;;;0.33;69.19;101400.80;106632;1266;74222;-38
2023/01/24 10:13:42;;;;;;;23.90;13.40;;;;;;;0.36;69.14;101400.70;107105;1258;69978;-38
2023/01/24 10:16:20;;;;;;;22.10;12.10;;;;;;;0.33;68.51;101399.15;107190;1256;72987;-38
2023/01/24 10:18:51;;;;;;;24.80;12.60;;;;;;;0.21;68.55;101396.44;107226;1260;62475;-37
2023/01/24 10:21:38;;;;;;;21.90;12.30;;;;;;;0.16;68.55;101393.95;107260;1257;61520;-38
2023/01/24 10:24:10;;;;;;;23.00;12.70;;;;;;;0.14;68.61;101395.89;107244;1257;74238;-38
2023/01/24 10:26:44;;;;;;;21.30;12.20;;;;;;;0.15;68.79;101390.25;107298;1260;69839;-37
2023/01/24 10:29:35;;;;;;;20.90;12.70;;;;;;;0.19;68.91;101388.73;107211;1260;73772;-37
2023/01/24 10:32:05;;;;;;;21.40;11.80;;;;;;;0.22;68.91;101385.85;107257;1259;59645;-38
2023/01/24 10:34:46;;;;;;;23.80;12.90;;;;;;;0.23;68.60;101384.58;107225;1258;61516;-38
2023/01/24 10:37:23;;;;;;;19.10;11.40;;;;;;;0.26;68.35;101382.38;107208;1257;72545;-37
2023/01/24 10:39:51;;;;;;;19.70;12.40;;;;;;;0.25;68.32;101377.29;107263;1257;67714;-37
2023/01/24 10:42:22;;;;;;;18.80;11.70;;;;;;;0.22;68.34;101373.25;107118;1259;73845;-37
2023/01/24 10:44:51;;;;;;;21.30;11.40;;;;;;;0.26;68.00;101371.65;107248;1257;60769;-37
2023/01/24 10:47:29;;;;;;;13.10;8.60;;;;;;;0.25;68.00;101371.27;107167;1257;61552;-37
2023/01/24 10:49:58;;;;;;;21.00;12.70;;;;;;;0.23;67.78;101369.05;107275;1258;73175;-37
2023/01/24 10:52:27;;;;;;;22.90;12.90;;;;;;;0.24;68.40;101365.86;107276;1258;69922;-37
2023/01/24 10:54:57;;;;;;;20.00;12.20;;;;;;;0.30;68.26;101364.33;106497;1257;1003808;-37
2023/01/24 10:57:40;;;;;;;;;;;;;;;0.27;67.81;101357.59;107258;1259;61628;-37
2023/01/24 11:00:12;;;;;;;19.60;11.60;;;;;;;0.13;68.10;101357.58;107288;1261;59621;-37
2023/01/24 11:02:42;;;;;;;21.80;11.20;;;;;;;0.04;67.73;101354.17;107240;1257;74190;-37
2023/01/24 11:05:12;;;;;;;21.20;11.30;;;;;;;0.01;67.59;101353.11;107202;1260;69916;-37
2023/01/24 11:07:55;;;;;;;;;;;;;;;0.01;67.57;101351.56;107185;1257;72468;-37
2023/01/24 11:10:30;;;;;;;20.30;12.30;;;;;;;0.05;67.96;101348.64;106412;1258;1003567;-37
2023/01/24 11:13:00;;;;;;;22.60;12.00;;;;;;;0.05;68.09;101343.46;107198;1259;61455;-37
2023/01/24 11:15:32;;;;;;;22.70;12.30;;;;;;;0.05;68.27;101343.46;107264;1257;74361;-36
2023/01/24 11:18:13;;;;;;;24.40;12.60;;;;;;;0.03;68.08;101343.34;107049;1257;70111;-37
2023/01/24 11:20:44;;;;;;;21.00;12.70;;;;;;;0.01;68.38;101343.98;107055;1258;73891;-37
2023/01/24 11:23:20;;;;;;;23.90;13.10;;;;;;;0.01;68.63;101340.52;107102;1257;60064;-37
2023/01/24 11:25:53;;;;;;;29.70;15.40;;;;;;;0.03;68.92;101335.27;107086;1260;61511;-38
2023/01/24 11:28:27;;;;;;;26.50;13.90;;;;;;;-0.01;69.08;101332.75;107231;1260;74206;-37
2023/01/24 11:30:56;;;;;;;25.90;14.50;;;;;;;-0.03;69.20;101329.58;107226;1258;69401;-37
2023/01/24 11:33:44;;;;;;;24.40;14.40;;;;;;;-0.04;69.82;101327.69;107228;1258;73866;-37
2023/01/24 16:25:04;;;;;;;22.30;13.30;;;;;;;0.35;72.85;101320.16;105073;1283;613613;-35
2023/01/24 16:27:33;;;;;;;18.60;11.60;;;;;;;0.76;70.38;101317.86;106319;1266;361033;-36
2023/01/24 16:30:01;;;;;;;19.40;11.40;;;;;;;0.63;69.92;101321.91;106644;1266;61732;-36
2023/01/24 16:32:30;;;;;;;25.70;12.20;;;;;;;0.55;69.79;101320.38;106663;1270;71140;-36
2023/01/24 16:34:59;;;;;;;20.20;11.10;;;;;;;0.49;69.63;101319.08;106690;1266;69975;-36
2023/01/24 16:37:28;;;;;;;22.70;10.90;;;;;;;0.46;69.05;101318.50;106769;1266;73924;-36
2023/01/24 16:39:58;;;;;;;16.80;10.70;;;;;;;0.45;68.98;101318.34;106799;1266;59231;-37
2023/01/24 16:42:27;;;;;;;21.10;11.60;;;;;;;0.42;69.00;101320.75;106792;1265;60148;-37
2023/01/24 16:44:59;;;;;;;21.40;12.50;;;;;;;0.39;68.40;101316.00;107270;1256;73388;-37
2023/01/24 16:47:28;;;;;;;25.10;12.90;;;;;;;0.30;68.11;101321.59;107245;1256;69929;-37
2023/01/24 16:49:59;;;;;;;19.00;12.20;;;;;;;0.26;68.42;101318.36;107227;1256;74315;-37
2023/01/24 16:52:29;;;;;;;20.20;12.20;;;;;;;0.20;68.37;101308.63;107269;1256;59655;-37
2023/01/24 16:54:57;;;;;;;22.50;12.60;;;;;;;0.15;68.49;101310.23;107248;1256;61629;-37
2023/01/24 16:57:28;;;;;;;22.20;12.00;;;;;;;0.09;68.43;101308.93;107268;1256;73920;-37
2023/01/24 16:59:57;;;;;;;25.70;13.50;;;;;;;-0.00;68.49;101305.36;107106;1257;69580;-37
2023/01/24 17:02:25;;;;;;;20.50;10.90;;;;;;;-0.04;68.71;101303.92;107256;1256;74479;-37
2023/01/24 17:04:54;;;;;;;23.40;12.00;;;;;;;-0.06;68.57;101294.13;107268;1260;60489;-37
2023/01/24 17:07:23;;;;;;;18.50;11.70;;;;;;;-0.01;68.57;101305.88;107270;1256;60458;-37
2023/01/24 17:09:52;;;;;;;30.50;16.10;;;;;;;-0.03;68.88;101307.66;107108;1256;74237;-37
2023/01/24 17:12:20;;;;;;;32.50;16.70;;;;;;;-0.07;69.09;101307.05;107091;1257;69878;-37
2023/01/24 17:14:48;;;;;;;35.10;19.80;;;;;;;-0.13;69.57;101306.20;107234;1256;72848;-37
2023/01/24 17:17:19;;;;;;;37.80;20.10;;;;;;;-0.16;70.15;101304.09;107188;1257;60957;-37
2023/01/24 17:19:47;;;;;;;38.00;20.20;;;;;;;-0.15;70.44;101297.54;107231;1256;60570;-37
2023/01/24 17:22:16;;;;;;;36.80;20.80;;;;;;;-0.12;70.41;101298.28;107278;1256;74217;-38
2023/01/24 17:24:45;;;;;;;33.20;19.20;;;;;;;-0.06;70.62;101302.49;107234;1257;69791;-37
2023/01/24 17:27:13;;;;;;;35.80;20.50;;;;;;;-0.06;70.51;101301.76;107238;1257;73884;-38
2023/01/24 17:29:43;;;;;;;38.90;21.70;;;;;;;-0.12;70.70;101295.63;107114;1257;60799;-37
2023/01/24 17:32:12;;;;;;;33.70;21.20;;;;;;;-0.15;71.13;101293.17;107129;1257;61676;-37
2023/01/24 17:34:40;;;;;;;38.00;20.50;;;;;;;-0.18;70.95;101295.45;107180;1257;74259;-38
2023/01/24 17:37:09;;;;;;;36.50;21.70;;;;;;;-0.20;71.31;101298.95;107225;1257;69901;-37
2023/01/24 17:39:37;;;;;;;35.20;20.30;;;;;;;-0.18;71.44;101299.30;107165;1257;73850;-37
2023/01/24 17:42:05;;;;;;;34.70;19.80;;;;;;;-0.05;71.55;101303.30;107203;1257;60594;-37
2023/01/24 17:44:38;;;;;;;34.10;19.20;;;;;;;0.07;71.60;101302.75;107229;1257;60926;-37
2023/01/24 17:47:06;;;;;;;30.90;17.00;;;;;;;0.13;71.41;101304.08;107192;1257;74245;-38
2023/01/24 17:49:35;;;;;;;29.90;17.20;;;;;;;0.14;71.05;101301.48;107199;1256;70034;-37
2023/01/24 17:52:04;;;;;;;27.60;15.40;;;;;;;0.18;70.61;101297.16;107224;1257;72565;-37
2023/01/24 17:54:32;;;;;;;27.00;15.10;;;;;;;0.23;70.43;101296.17;107181;1260;60786;-37
2023/01/24 17:57:00;;;;;;;24.30;13.80;;;;;;;0.23;69.85;101297.41;107220;1257;61578;-37
2023/01/24 17:59:31;;;;;;;20.50;12.60;;;;;;;0.21;69.51;101296.54;107216;1258;74244;-37
2023/01/24 18:02:00;;;;;;;20.60;11.90;;;;;;;0.13;69.19;101289.37;107238;1257;69904;-37
2023/01/24 18:04:30;;;;;;;19.10;12.20;;;;;;;0.16;68.95;101297.72;107233;1258;73951;-37
2023/01/24 18:06:59;;;;;;;23.60;14.10;;;;;;;0.13;68.81;101294.58;107143;1258;60777;-37
2023/01/24 18:09:28;;;;;;;26.30;13.00;;;;;;;0.09;68.68;101295.33;106421;1257;1002840;-37
2023/01/24 18:11:57;;;;;;;20.80;11.40;;;;;;;0.09;68.15;101291.65;107067;1257;74669;-36
2023/01/24 18:14:25;;;;;;;19.40;11.30;;;;;;;0.12;68.10;101292.11;107097;1260;66635;-37
2023/01/24 18:16:54;;;;;;;17.90;12.10;;;;;;;0.13;67.90;101295.23;107070;1257;72992;-37
2023/01/24 18:19:23;;;;;;;23.40;12.50;;;;;;;0.12;67.78;101290.89;107086;1257;60725;-37
2023/01/24 18:21:52;;;;;;;22.90;13.50;;;;;;;0.10;67.70;101290.01;107205;1257;61371;-37
2023/01/24 18:24:20;;;;;;;20.70;12.70;;;;;;;0.07;67.51;101290.54;107238;1257;74279;-37
2023/01/24 18:26:49;;;;;;;23.60;13.60;;;;;;;0.05;67.50;101297.23;107190;1257;69972;-37
2023/01/24 18:29:17;;;;;;;22.60;13.40;;;;;;;0.04;67.61;101295.18;107272;1257;73831;-37
2023/01/24 18:31:45;;;;;;;22.80;12.80;;;;;;;0.03;67.53;101295.54;107145;1257;59871;-37
2023/01/24 18:34:14;;;;;;;19.70;12.60;;;;;;;-0.04;67.34;101293.30;107249;1257;60006;-37
2023/01/24 18:36:45;;;;;;;22.90;13.00;;;;;;;-0.09;67.51;101292.48;107166;1257;74259;-37
2023/01/24 18:39:13;;;;;;;22.90;12.70;;;;;;;-0.14;67.47;101289.61;107276;1257;69898;-36
2023/01/24 18:41:42;;;;;;;18.80;10.70;;;;;;;-0.12;67.65;101290.98;107196;1257;73723;-36
2023/01/24 18:44:12;;;;;;;21.10;12.30;;;;;;;-0.03;67.47;101294.08;107100;1257;61066;-36
2023/01/24 18:46:40;;;;;;;23.00;13.30;;;;;;;0.01;67.52;101293.48;107158;1258;61523;-37
2023/01/24 18:49:10;;;;;;;22.30;13.20;;;;;;;0.06;67.30;101296.52;107229;1257;74306;-38
2023/01/24 18:51:38;;;;;;;24.10;14.20;;;;;;;0.13;67.38;101297.04;107303;1257;67277;-38
2023/01/24 18:54:07;;;;;;;23.10;13.30;;;;;;;0.18;67.22;101298.34;107298;1257;73917;-38
2023/01/24 18:56:36;;;;;;;23.50;13.90;;;;;;;0.23;67.21;101295.48;107211;1257;60789;-37
2023/01/24 18:59:05;;;;;;;23.00;13.30;;;;;;;0.24;67.11;101292.56;107311;1257;60534;-38
2023/01/24 19:01:34;;;;;;;22.20;12.90;;;;;;;0.26;67.02;101294.53;107268;1258;74561;-38
2023/01/24 19:04:02;;;;;;;21.80;12.50;;;;;;;0.26;66.72;101295.11;107207;1257;69896;-38
2023/01/24 19:06:32;;;;;;;23.50;13.20;;;;;;;0.24;66.58;101293.68;107205;1257;73870;-38
2023/01/24 19:09:04;;;;;;;20.00;11.40;;;;;;;0.22;66.57;101293.73;107246;1257;59728;-37
2023/01/24 19:11:35;;;;;;;20.90;12.90;;;;;;;0.20;66.52;101294.48;107121;1257;61303;-37
2023/01/24 19:14:04;;;;;;;24.70;12.90;;;;;;;0.18;66.75;101290.73;107081;1257;73053;-37
2023/01/24 19:16:33;;;;;;;18.90;12.00;;;;;;;0.17;66.47;101292.51;107125;1260;67972;-37
2023/01/24 19:19:03;;;;;;;20.70;12.40;;;;;;;0.19;66.61;101293.18;106367;1257;1002948;-37
2023/01/24 19:21:33;;;;;;;21.30;12.60;;;;;;;0.25;66.46;101295.73;107183;1257;60755;-37
2023/01/24 19:24:03;;;;;;;24.10;13.80;;;;;;;0.29;66.35;101293.70;107254;1257;61431;-37
2023/01/24 19:26:31;;;;;;;;;;;;;;;0.30;66.26;101293.25;107302;1257;74217;-37
2023/01/24 19:29:00;;;;;;;23.30;14.50;;;;;;;0.23;66.30;101291.05;107249;1260;69948;-37
2023/01/24 19:31:29;;;;;;;21.50;13.80;;;;;;;0.18;66.63;101294.61;107211;1257;73899;-37
2023/01/24 19:33:58;;;;;;;22.50;14.10;;;;;;;0.15;66.38;101289.59;107182;1257;60519;-37
2023/01/24 19:36:27;;;;;;;24.90;14.10;;;;;;;0.06;66.83;101289.02;107261;1257;61503;-37
2023/01/24 19:38:57;;;;;;;25.70;14.40;;;;;;;-0.01;66.82;101292.08;107190;1261;74355;-37
2023/01/24 19:41:25;;;;;;;24.90;14.70;;;;;;;-0.01;66.94;101294.95;107305;1258;69815;-37
2023/01/24 22:20:17;;;;;;;13.00;8.10;;;;;;;0.51;64.06;101268.36;105105;1282;612949;-41
2023/01/24 22:22:48;;;;;;;11.50;7.40;;;;;;;0.80;61.89;101262.17;106513;1265;161164;-41
2023/01/24 22:25:25;;;;;;;13.70;7.30;;;;;;;0.62;61.37;101256.75;106692;1264;61560;-40
2023/01/24 22:27:54;;;;;;;11.40;7.40;;;;;;;0.51;61.17;101254.52;106689;1266;73424;-40
2023/01/24 22:30:23;;;;;;;11.20;7.00;;;;;;;0.47;61.50;101248.94;106714;1266;69222;-41
2023/01/24 22:32:54;;;;;;;11.80;7.00;;;;;;;0.46;61.43;101249.65;106738;1266;74284;-40
2023/01/24 22:35:25;;;;;;;14.40;7.90;;;;;;;0.44;61.54;101253.59;106771;1266;60792;-40
2023/01/24 22:37:58;;;;;;;11.40;7.30;;;;;;;0.39;61.10;101250.96;106789;1268;60657;-40
2023/01/24 22:40:26;;;;;;;10.10;6.90;;;;;;;0.35;60.89;101248.77;106851;1266;72188;-40
2023/01/24 22:42:56;;;;;;;12.60;7.10;;;;;;;0.32;61.04;101250.55;106797;1266;69840;-40
2023/01/24 22:45:25;;;;;;;;;;;;;;;0.29;61.04;101252.30;106747;1266;73883;-40
2023/01/24 22:47:54;;;;;;;13.80;6.90;;;;;;;0.19;61.37;101248.70;106773;1266;59660;-40
2023/01/24 22:50:22;;;;;;;12.50;7.70;;;;;;;0.12;61.62;101249.06;106786;1265;59415;-40
2023/01/24 22:52:51;;;;;;;14.70;7.00;;;;;;;0.11;61.69;101245.69;106734;1266;74208;-40
2023/01/24 22:55:19;;;;;;;11.70;8.10;;;;;;;0.09;61.50;101242.73;106029;1266;1002996;-40
2023/01/24 22:57:47;;;;;;;15.70;7.70;;;;;;;0.05;61.29;101240.33;106707;1265;73798;-40
2023/01/24 23:00:17;;;;;;;14.40;7.80;;;;;;;-0.02;61.39;101241.87;106740;1265;60760;-40
2023/01/24 23:02:45;;;;;;;10.50;7.40;;;;;;;-0.12;61.40;101234.99;106811;1266;59609;-40
2023/01/24 23:05:14;;;;;;;15.20;8.30;;;;;;;-0.20;61.51;101233.85;106780;1265;74206;-41
2023/01/24 23:07:42;;;;;;;15.00;8.20;;;;;;;-0.31;61.58;101232.25;106710;1264;69938;-40
2023/01/24 23:10:11;;;;;;;11.30;7.60;;;;;;;-0.46;61.52;101230.45;107160;1257;73029;-40
2023/01/24 23:21:26;;;;;;;14.10;8.50;;;;;;;-0.61;62.80;101229.71;107133;1261;74296;-41
2023/01/24 23:23:59;;;;;;;14.30;8.10;;;;;;;-0.56;63.43;101226.17;107152;1257;73588;-40
2023/01/24 23:26:29;;;;;;;15.40;7.80;;;;;;;-0.45;63.59;101223.70;107201;1257;62389;-40
2023/01/24 23:29:38;;;;;;;8.90;6.20;;;;;;;-0.30;63.36;101220.63;107201;1257;61300;-40
2023/01/24 23:32:27;;;;;;;12.90;7.50;;;;;;;-0.17;63.31;101215.26;107181;1258;72432;-40
2023/01/24 23:34:57;;;;;;;13.70;8.00;;;;;;;-0.12;62.40;101209.67;107021;1257;69969;-41
2023/01/24 23:37:27;;;;;;;13.90;7.60;;;;;;;-0.13;61.50;101205.23;107152;1257;73804;-40
2023/01/24 23:39:56;;;;;;;12.10;7.20;;;;;;;-0.15;61.34;101197.90;107113;1257;60789;-40
2023/01/24 23:42:25;;;;;;;11.00;7.20;;;;;;;-0.16;60.98;101192.99;107159;1257;60872;-40
2023/01/24 23:44:55;;;;;;;13.60;6.90;;;;;;;-0.15;61.23;101197.20;107190;1257;73104;-40
2023/01/24 23:47:23;;;;;;;10.30;7.00;;;;;;;-0.13;61.34;101195.96;107200;1258;68987;-40
2023/01/24 23:49:52;;;;;;;13.00;7.20;;;;;;;-0.10;61.18;101195.63;107111;1258;73866;-40
2023/01/24 23:52:21;;;;;;;12.20;7.60;;;;;;;-0.07;61.29;101188.32;107178;1261;60815;-40
2023/01/24 23:54:50;;;;;;;14.30;7.50;;;;;;;-0.05;61.06;101191.86;107186;1258;60479;-40
2023/01/24 23:57:18;;;;;;;12.20;7.30;;;;;;;-0.05;60.82;101190.42;107241;1257;74246;-40
2023/01/24 23:59:47;;;;;;;10.30;6.80;;;;;;;-0.06;60.81;101193.79;107235;1261;69005;-40
